createdAt,value
2023-03-13T00:00:11.928Z,0
2023-03-13T00:01:11.882Z,0
2023-03-13T00:02:12.492Z,0
2023-03-13T00:03:11.878Z,0
2023-03-13T00:04:11.629Z,0
2023-03-13T00:05:11.616Z,0
2023-03-13T00:06:12.268Z,0
2023-03-13T00:07:11.822Z,0
2023-03-13T00:08:11.791Z,0
2023-03-13T00:09:11.838Z,0
2023-03-13T00:10:11.505Z,0
2023-03-13T00:11:11.572Z,0
2023-03-13T00:12:11.473Z,0
2023-03-13T00:13:12.131Z,0
2023-03-13T00:14:12.036Z,0
2023-03-13T00:15:11.510Z,0
2023-03-13T00:16:11.740Z,0
2023-03-13T00:17:11.574Z,0
2023-03-13T00:18:11.661Z,0
2023-03-13T00:19:11.615Z,0
2023-03-13T00:20:11.684Z,0
2023-03-13T00:21:11.562Z,0
2023-03-13T00:22:11.568Z,0
2023-03-13T00:23:11.054Z,0
2023-03-13T00:24:11.569Z,0
2023-03-13T00:25:11.273Z,0
2023-03-13T00:26:11.300Z,0
2023-03-13T00:27:11.760Z,0
2023-03-13T00:28:11.237Z,0
2023-03-13T00:29:11.870Z,0
2023-03-13T00:30:11.707Z,0
2023-03-13T00:31:12.178Z,0
2023-03-13T00:32:11.743Z,0
2023-03-13T00:33:11.778Z,0
2023-03-13T00:34:11.412Z,0
2023-03-13T00:35:11.424Z,0
2023-03-13T00:36:11.716Z,0
2023-03-13T00:37:11.396Z,0
2023-03-13T00:38:11.393Z,0
2023-03-13T00:39:11.157Z,0
2023-03-13T00:40:11.377Z,0
2023-03-13T00:41:11.366Z,0
2023-03-13T00:42:11.099Z,0
2023-03-13T00:43:11.080Z,0
2023-03-13T00:44:11.639Z,0
2023-03-13T00:45:11.671Z,0
2023-03-13T00:46:11.841Z,0
2023-03-13T00:47:11.282Z,0
2023-03-13T00:48:10.993Z,0
2023-03-13T00:49:11.560Z,0
2023-03-13T00:50:11.581Z,0
2023-03-13T00:51:10.952Z,0
2023-03-13T00:52:11.440Z,0
2023-03-13T00:53:12.085Z,0
2023-03-13T00:54:12.098Z,0
2023-03-13T00:55:11.774Z,0
2023-03-13T00:56:12.048Z,0
2023-03-13T00:57:12.012Z,0
2023-03-13T00:58:11.976Z,0
2023-03-13T00:59:11.747Z,0
2023-03-13T01:00:12.261Z,0
2023-03-13T01:01:12.332Z,0
2023-03-13T01:02:12.458Z,0
2023-03-13T01:03:12.351Z,0
2023-03-13T01:04:11.948Z,0
2023-03-13T01:05:11.920Z,0
2023-03-13T01:06:11.911Z,0
2023-03-13T01:07:11.891Z,0
2023-03-13T01:08:11.594Z,0
2023-03-13T01:09:12.079Z,0
2023-03-13T01:10:11.545Z,0
2023-03-13T01:11:12.055Z,0
2023-03-13T01:12:11.511Z,0
2023-03-13T01:13:11.492Z,0
2023-03-13T01:14:11.755Z,0
2023-03-13T01:15:11.991Z,0
2023-03-13T01:16:11.814Z,0
2023-03-13T01:17:12.214Z,0
2023-03-13T01:18:11.684Z,0
2023-03-13T01:19:15.321Z,0
2023-03-13T01:20:11.420Z,0
2023-03-13T01:21:11.414Z,0
2023-03-13T01:22:11.605Z,0
2023-03-13T01:23:11.384Z,0
2023-03-13T01:24:11.588Z,0
2023-03-13T01:25:11.562Z,0
2023-03-13T01:26:11.534Z,0
2023-03-13T01:27:11.520Z,0
2023-03-13T01:28:11.283Z,0
2023-03-13T01:29:11.787Z,0
2023-03-13T01:30:11.746Z,0
2023-03-13T01:31:11.261Z,0
2023-03-13T01:32:11.549Z,0
2023-03-13T01:33:11.819Z,0
2023-03-13T01:34:11.473Z,0
2023-03-13T01:35:11.658Z,0
2023-03-13T01:36:11.320Z,0
2023-03-13T01:37:11.367Z,0
2023-03-13T01:38:11.348Z,0
2023-03-13T01:39:11.381Z,0
2023-03-13T01:40:11.703Z,0
2023-03-13T01:41:11.081Z,0
2023-03-13T01:42:11.084Z,0
2023-03-13T01:43:27.132Z,0
2023-03-13T01:44:11.270Z,0
2023-03-13T01:45:11.000Z,0
2023-03-13T01:46:11.358Z,0
2023-03-13T01:47:11.526Z,0
2023-03-13T01:48:11.433Z,0
2023-03-13T01:49:11.591Z,0
2023-03-13T01:50:11.190Z,0
2023-03-13T01:51:11.566Z,0
2023-03-13T01:52:11.225Z,0
2023-03-13T01:53:10.843Z,0
2023-03-13T01:54:11.116Z,0
2023-03-13T01:55:11.351Z,0
2023-03-13T01:56:10.815Z,0
2023-03-13T01:57:11.327Z,0
2023-03-13T01:58:10.772Z,0
2023-03-13T01:59:10.565Z,0
2023-03-13T02:00:10.741Z,0
2023-03-13T02:01:11.047Z,0
2023-03-13T02:02:11.609Z,0
2023-03-13T02:03:11.353Z,0
2023-03-13T02:04:10.936Z,0
2023-03-13T02:05:11.525Z,0
2023-03-13T02:06:11.265Z,0
2023-03-13T02:07:10.894Z,0
2023-03-13T02:08:10.865Z,0
2023-03-13T02:09:10.852Z,0
2023-03-13T02:10:11.019Z,0
2023-03-13T02:11:10.570Z,0
2023-03-13T02:12:10.808Z,0
2023-03-13T02:13:10.523Z,0
2023-03-13T02:14:11.068Z,0
2023-03-13T02:15:10.758Z,0
2023-03-13T02:16:10.938Z,0
2023-03-13T02:17:11.082Z,0
2023-03-13T02:18:10.542Z,0
2023-03-13T02:19:10.692Z,0
2023-03-13T02:20:11.456Z,0
2023-03-13T02:21:11.830Z,0
2023-03-13T02:22:11.774Z,0
2023-03-13T02:23:11.405Z,0
2023-03-13T02:24:11.389Z,0
2023-03-13T02:25:10.852Z,0
2023-03-13T02:26:11.363Z,0
2023-03-13T02:27:10.843Z,0
2023-03-13T02:28:11.305Z,0
2023-03-13T02:29:11.333Z,0
2023-03-13T02:30:42.872Z,0
2023-03-13T02:31:11.920Z,0
2023-03-13T02:32:11.004Z,0
2023-03-13T02:33:11.589Z,0
2023-03-13T02:34:10.965Z,0
2023-03-13T02:35:11.076Z,0
2023-03-13T02:36:11.398Z,0
2023-03-13T02:37:11.568Z,0
2023-03-13T02:38:11.186Z,0
2023-03-13T02:39:11.133Z,0
2023-03-13T02:40:11.420Z,0
2023-03-13T02:41:10.877Z,0
2023-03-13T02:42:12.079Z,0
2023-03-13T02:43:12.284Z,0
2023-03-13T02:44:11.511Z,0
2023-03-13T02:45:11.733Z,0
2023-03-13T02:46:12.092Z,0
2023-03-13T02:47:11.785Z,0
2023-03-13T02:48:12.191Z,0
2023-03-13T02:49:11.924Z,0
2023-03-13T02:50:12.158Z,0
2023-03-13T02:51:11.905Z,0
2023-03-13T02:52:11.365Z,0
2023-03-13T02:53:12.267Z,0
2023-03-13T02:54:12.034Z,0
2023-03-13T02:55:11.980Z,0
2023-03-13T02:56:11.799Z,0
2023-03-13T02:57:11.297Z,0
2023-03-13T02:58:11.796Z,0
2023-03-13T02:59:11.564Z,0
2023-03-13T03:00:11.244Z,0
2023-03-13T03:01:12.203Z,0
2023-03-13T03:02:11.754Z,0
2023-03-13T03:03:11.464Z,0
2023-03-13T03:04:12.068Z,0
2023-03-13T03:05:11.694Z,0
2023-03-13T03:06:11.666Z,0
2023-03-13T03:07:11.675Z,0
2023-03-13T03:08:11.878Z,0
2023-03-13T03:09:12.015Z,0
2023-03-13T03:10:11.635Z,0
2023-03-13T03:11:11.366Z,0
2023-03-13T03:12:11.566Z,0
2023-03-13T03:13:11.560Z,0
2023-03-13T03:14:11.798Z,0
2023-03-13T03:15:11.277Z,0
2023-03-13T03:16:11.834Z,0
2023-03-13T03:17:11.229Z,0
2023-03-13T03:18:11.256Z,0
2023-03-13T03:19:11.716Z,0
2023-03-13T03:20:11.330Z,0
2023-03-13T03:21:11.671Z,0
2023-03-13T03:22:11.647Z,0
2023-03-13T03:23:10.914Z,0
2023-03-13T03:24:11.386Z,0
2023-03-13T03:25:12.062Z,0
2023-03-13T03:26:11.206Z,0
2023-03-13T03:27:11.324Z,0
2023-03-13T03:28:11.071Z,0
2023-03-13T03:29:11.124Z,0
2023-03-13T03:30:11.553Z,0
2023-03-13T03:31:11.308Z,0
2023-03-13T03:32:11.667Z,0
2023-03-13T03:33:11.311Z,0
2023-03-13T03:34:10.991Z,0
2023-03-13T03:35:11.547Z,0
2023-03-13T03:36:11.313Z,0
2023-03-13T03:37:10.903Z,0
2023-03-13T03:38:11.402Z,0
2023-03-13T03:39:10.632Z,0
2023-03-13T03:40:10.884Z,0
2023-03-13T03:41:11.495Z,0
2023-03-13T03:42:10.828Z,0
2023-03-13T03:43:11.137Z,0
2023-03-13T03:44:11.082Z,0
2023-03-13T03:45:10.802Z,0
2023-03-13T03:46:11.764Z,0
2023-03-13T03:47:11.408Z,0
2023-03-13T03:48:11.238Z,0
2023-03-13T03:49:10.750Z,0
2023-03-13T03:50:10.984Z,0
2023-03-13T03:51:10.967Z,0
2023-03-13T03:52:10.975Z,0
2023-03-13T03:53:11.192Z,0
2023-03-13T03:54:10.658Z,0
2023-03-13T03:55:10.393Z,0
2023-03-13T03:56:11.191Z,0
2023-03-13T03:57:11.264Z,0
2023-03-13T03:58:10.593Z,0
2023-03-13T03:59:10.316Z,0
2023-03-13T04:00:10.854Z,0
2023-03-13T04:01:10.563Z,0
2023-03-13T04:02:11.275Z,0
2023-03-13T04:03:10.991Z,0
2023-03-13T04:04:10.510Z,0
2023-03-13T04:05:10.240Z,0
2023-03-13T04:06:10.978Z,0
2023-03-13T04:07:10.777Z,0
2023-03-13T04:08:10.468Z,0
2023-03-13T04:09:10.702Z,0
2023-03-13T04:10:10.918Z,0
2023-03-13T04:11:11.051Z,0
2023-03-13T04:12:10.149Z,0
2023-03-13T04:13:11.053Z,0
2023-03-13T04:14:10.368Z,0
2023-03-13T04:15:10.584Z,0
2023-03-13T04:16:10.927Z,0
2023-03-13T04:17:10.366Z,0
2023-03-13T04:18:10.592Z,0
2023-03-13T04:19:10.562Z,0
2023-03-13T04:20:10.771Z,0
2023-03-13T04:21:10.510Z,0
2023-03-13T04:22:10.230Z,0
2023-03-13T04:23:10.503Z,0
2023-03-13T04:24:10.826Z,0
2023-03-13T04:25:09.965Z,0
2023-03-13T04:26:10.460Z,0
2023-03-13T04:27:10.171Z,0
2023-03-13T04:28:10.430Z,0
2023-03-13T04:45:56.617Z,0
2023-03-13T04:46:55.878Z,0
2023-03-13T04:47:55.772Z,0
2023-03-13T04:48:56.105Z,0
2023-03-13T04:49:56.080Z,0
2023-03-13T04:50:56.093Z,0
2023-03-13T04:51:55.794Z,0
2023-03-13T04:52:58.319Z,0
2023-03-13T04:53:56.014Z,0
2023-03-13T04:54:56.091Z,0
2023-03-13T04:55:55.711Z,0
2023-03-13T04:56:55.711Z,0
2023-03-13T04:57:55.698Z,0
2023-03-13T04:58:56.205Z,0
2023-03-13T04:59:55.402Z,0
2023-03-13T05:00:55.400Z,0
2023-03-13T05:01:56.518Z,0
2023-03-13T05:02:55.895Z,0
2023-03-13T05:03:55.334Z,0
2023-03-13T05:04:58.586Z,0
2023-03-13T05:05:55.545Z,0
2023-03-13T05:06:55.815Z,0
2023-03-13T05:07:55.544Z,0
2023-03-13T05:08:55.775Z,0
2023-03-13T05:09:55.766Z,0
2023-03-13T05:10:55.232Z,0
2023-03-13T05:11:57.803Z,0
2023-03-13T05:12:55.704Z,0
2023-03-13T05:13:55.205Z,0
2023-03-13T05:14:55.678Z,0
2023-03-13T05:15:56.002Z,0
2023-03-13T05:16:55.154Z,0
2023-03-13T05:17:58.555Z,0
2023-03-13T05:18:55.369Z,0
2023-03-13T05:19:55.227Z,0
2023-03-13T05:20:55.657Z,0
2023-03-13T05:21:55.885Z,0
2023-03-13T05:22:55.866Z,0
2023-03-13T05:23:55.608Z,0
2023-03-13T05:24:55.568Z,0
2023-03-13T05:25:55.077Z,0
2023-03-13T05:26:55.300Z,0
2023-03-13T05:27:55.289Z,0
2023-03-13T05:28:55.551Z,0
2023-03-13T05:29:55.512Z,0
2023-03-13T05:30:55.266Z,0
2023-03-13T05:31:55.743Z,0
2023-03-13T05:32:55.642Z,0
2023-03-13T05:33:55.916Z,0
2023-03-13T05:34:55.513Z,0
2023-03-13T05:35:55.932Z,0
2023-03-13T05:36:55.689Z,0
2023-03-13T05:37:55.363Z,0
2023-03-13T05:38:55.364Z,0
2023-03-13T05:39:55.067Z,0
2023-03-13T05:40:55.340Z,0
2023-03-13T05:41:55.050Z,0
2023-03-13T05:42:55.302Z,5
2023-03-13T05:43:55.544Z,5
2023-03-13T05:44:55.254Z,5
2023-03-13T05:45:55.001Z,5
2023-03-13T05:46:55.696Z,5
2023-03-13T05:47:55.524Z,5
2023-03-13T05:48:55.237Z,5
2023-03-13T05:49:55.581Z,5
2023-03-13T05:50:54.911Z,10
2023-03-13T05:51:55.142Z,10
2023-03-13T05:52:54.895Z,10
2023-03-13T05:53:55.123Z,10
2023-03-13T05:54:54.856Z,10
2023-03-13T05:55:55.120Z,15
2023-03-13T05:56:55.346Z,15
2023-03-13T05:57:54.884Z,15
2023-03-13T05:58:55.110Z,15
2023-03-13T05:59:55.024Z,15
2023-03-13T06:00:55.009Z,15
2023-03-13T06:01:54.737Z,20
2023-03-13T06:02:55.230Z,20
2023-03-13T06:03:55.679Z,20
2023-03-13T06:04:55.978Z,20
2023-03-13T06:05:55.330Z,25
2023-03-13T06:06:55.228Z,25
2023-03-13T06:07:54.941Z,30
2023-03-13T06:08:54.915Z,30
2023-03-13T06:09:55.146Z,25
2023-03-13T06:10:55.145Z,25
2023-03-13T06:11:54.860Z,20
2023-03-13T06:12:54.817Z,20
2023-03-13T06:13:54.828Z,20
2023-03-13T06:14:55.044Z,20
2023-03-13T06:15:54.676Z,15
2023-03-13T06:16:54.633Z,15
2023-03-13T06:17:54.495Z,15
2023-03-13T06:18:54.759Z,20
2023-03-13T06:19:54.724Z,20
2023-03-13T06:20:54.963Z,25
2023-03-13T06:21:55.142Z,30
2023-03-13T06:22:54.404Z,35
2023-03-13T06:23:54.694Z,35
2023-03-13T06:24:54.684Z,35
2023-03-13T06:25:54.908Z,35
2023-03-13T06:26:56.876Z,35
2023-03-13T06:27:54.604Z,40
2023-03-13T06:28:54.602Z,50
2023-03-13T06:29:54.311Z,60
2023-03-13T06:30:54.571Z,65
2023-03-13T06:31:55.450Z,70
2023-03-13T06:32:54.822Z,70
2023-03-13T06:33:56.691Z,65
2023-03-13T06:34:54.233Z,65
2023-03-13T06:36:05.526Z,65
2023-03-13T06:36:54.209Z,70
2023-03-13T06:37:54.879Z,75
2023-03-13T06:38:54.692Z,80
2023-03-13T06:39:54.415Z,80
2023-03-13T06:40:56.774Z,80
2023-03-13T06:41:54.391Z,80
2023-03-13T06:42:54.116Z,80
2023-03-13T06:43:54.384Z,90
2023-03-13T06:44:54.090Z,110
2023-03-13T06:45:54.111Z,125
2023-03-13T06:46:55.041Z,140
2023-03-13T06:47:54.047Z,145
2023-03-13T06:48:54.306Z,140
2023-03-13T06:49:54.340Z,125
2023-03-13T06:50:54.296Z,120
2023-03-13T06:51:54.244Z,125
2023-03-13T06:52:53.991Z,115
2023-03-13T06:53:54.837Z,115
2023-03-13T06:54:53.947Z,120
2023-03-13T06:55:54.115Z,120
2023-03-13T06:56:54.448Z,110
2023-03-13T06:57:53.650Z,100
2023-03-13T06:58:54.178Z,105
2023-03-13T06:59:53.391Z,120
2023-03-13T07:00:54.878Z,115
2023-03-13T07:01:54.204Z,95
2023-03-13T07:02:54.344Z,80
2023-03-13T07:03:54.400Z,90
2023-03-13T07:04:54.982Z,90
2023-03-13T07:05:54.058Z,85
2023-03-13T07:06:54.378Z,85
2023-03-13T07:07:54.292Z,75
2023-03-13T07:08:54.358Z,90
2023-03-13T07:09:54.391Z,95
2023-03-13T07:10:53.732Z,100
2023-03-13T07:11:53.966Z,100
2023-03-13T07:12:54.243Z,95
2023-03-13T07:13:55.046Z,100
2023-03-13T07:14:53.954Z,105
2023-03-13T07:15:53.972Z,105
2023-03-13T07:16:54.919Z,110
2023-03-13T07:17:54.180Z,110
2023-03-13T07:18:53.976Z,90
2023-03-13T07:19:53.793Z,115
2023-03-13T07:20:53.135Z,105
2023-03-13T07:21:54.370Z,105
2023-03-13T07:22:53.570Z,100
2023-03-13T07:23:54.091Z,90
2023-03-13T07:24:54.197Z,95
2023-03-13T07:25:54.182Z,90
2023-03-13T07:27:15.162Z,95
2023-03-13T07:27:53.487Z,95
2023-03-13T07:28:53.740Z,100
2023-03-13T07:29:53.956Z,120
2023-03-13T07:30:53.702Z,120
2023-03-13T07:31:53.988Z,115
2023-03-13T07:32:54.091Z,120
2023-03-13T07:33:53.685Z,120
2023-03-13T07:34:53.689Z,140
2023-03-13T07:35:53.893Z,145
2023-03-13T07:36:53.881Z,155
2023-03-13T07:37:53.635Z,150
2023-03-13T07:38:53.983Z,130
2023-03-13T07:39:53.581Z,140
2023-03-13T07:40:53.067Z,125
2023-03-13T07:41:53.921Z,110
2023-03-13T07:42:53.789Z,110
2023-03-13T07:43:53.276Z,95
2023-03-13T07:44:53.276Z,90
2023-03-13T07:45:53.751Z,80
2023-03-13T07:46:53.714Z,75
2023-03-13T07:47:53.727Z,80
2023-03-13T07:48:53.786Z,80
2023-03-13T07:49:53.623Z,80
2023-03-13T07:50:53.019Z,85
2023-03-13T07:51:53.818Z,75
2023-03-13T07:52:53.374Z,70
2023-03-13T07:53:53.695Z,75
2023-03-13T07:54:53.538Z,85
2023-03-13T07:55:53.361Z,105
2023-03-13T07:56:53.069Z,95
2023-03-13T07:57:53.815Z,115
2023-03-13T07:58:53.304Z,95
2023-03-13T07:59:53.570Z,105
2023-03-13T08:00:53.540Z,115
2023-03-13T08:01:53.468Z,115
2023-03-13T08:02:53.412Z,120
2023-03-13T08:03:53.144Z,115
2023-03-13T08:04:53.232Z,115
2023-03-13T08:05:53.488Z,115
2023-03-13T08:06:53.445Z,115
2023-03-13T08:07:52.967Z,135
2023-03-13T08:08:52.961Z,135
2023-03-13T08:09:53.165Z,155
2023-03-13T08:10:52.883Z,170
2023-03-13T08:11:53.121Z,120
2023-03-13T08:12:53.132Z,125
2023-03-13T08:13:54.316Z,150
2023-03-13T08:14:53.928Z,115
2023-03-13T08:15:54.142Z,175
2023-03-13T08:16:54.006Z,190
2023-03-13T08:17:53.607Z,180
2023-03-13T08:18:53.847Z,225
2023-03-13T08:19:53.364Z,215
2023-03-13T08:20:55.057Z,125
2023-03-13T08:21:53.545Z,130
2023-03-13T08:22:54.096Z,140
2023-03-13T08:23:53.568Z,125
2023-03-13T08:24:53.249Z,130
2023-03-13T08:25:53.517Z,165
2023-03-13T08:26:53.486Z,105
2023-03-13T08:27:53.859Z,75
2023-03-13T08:28:53.697Z,90
2023-03-13T08:29:54.108Z,105
2023-03-13T08:30:54.646Z,145
2023-03-13T08:31:53.924Z,130
2023-03-13T08:32:54.286Z,90
2023-03-13T08:33:53.661Z,90
2023-03-13T08:34:53.656Z,70
2023-03-13T08:35:53.689Z,65
2023-03-13T08:36:53.666Z,70
2023-03-13T08:37:53.609Z,75
2023-03-13T08:38:55.536Z,40
2023-03-13T08:39:53.556Z,35
2023-03-13T08:40:53.556Z,50
2023-03-13T08:41:53.566Z,70
2023-03-13T08:42:53.004Z,95
2023-03-13T08:43:53.311Z,75
2023-03-13T08:44:53.518Z,75
2023-03-13T08:45:54.106Z,70
2023-03-13T08:46:54.337Z,45
2023-03-13T08:47:53.272Z,50
2023-03-13T08:48:53.780Z,65
2023-03-13T08:49:53.674Z,55
2023-03-13T08:50:53.410Z,65
2023-03-13T08:51:53.462Z,60
2023-03-13T08:52:53.386Z,90
2023-03-13T08:53:53.416Z,140
2023-03-13T08:54:53.608Z,80
2023-03-13T08:55:53.350Z,55
2023-03-13T08:56:53.377Z,50
2023-03-13T08:57:53.051Z,60
2023-03-13T08:58:53.224Z,65
2023-03-13T08:59:53.589Z,95
2023-03-13T09:00:53.643Z,100
2023-03-13T09:01:53.659Z,90
2023-03-13T09:02:53.820Z,90
2023-03-13T09:03:53.476Z,130
2023-03-13T09:04:52.961Z,105
2023-03-13T09:06:04.814Z,95
2023-03-13T09:06:53.559Z,85
2023-03-13T09:07:53.446Z,110
2023-03-13T09:08:53.516Z,115
2023-03-13T09:09:53.151Z,95
2023-03-13T09:10:53.401Z,90
2023-03-13T09:11:52.866Z,115
2023-03-13T09:12:53.125Z,215
2023-03-13T09:13:53.133Z,175
2023-03-13T09:14:53.088Z,110
2023-03-13T09:15:53.522Z,110
2023-03-13T09:16:53.114Z,105
2023-03-13T09:17:53.854Z,165
2023-03-13T09:18:53.491Z,195
2023-03-13T09:20:08.812Z,140
2023-03-13T09:20:56.103Z,125
2023-03-13T09:21:53.299Z,125
2023-03-13T09:22:53.008Z,125
2023-03-13T09:23:52.765Z,120
2023-03-13T09:24:53.200Z,120
2023-03-13T09:25:52.946Z,115
2023-03-13T09:27:09.187Z,110
2023-03-13T09:27:52.673Z,120
2023-03-13T09:28:52.897Z,135
2023-03-13T09:29:52.626Z,140
2023-03-13T09:30:53.223Z,120
2023-03-13T09:31:53.108Z,120
2023-03-13T09:32:52.971Z,125
2023-03-13T09:33:53.248Z,140
2023-03-13T09:34:52.554Z,160
2023-03-13T09:35:53.137Z,140
2023-03-13T09:36:52.567Z,120
2023-03-13T09:37:53.081Z,140
2023-03-13T09:38:53.280Z,150
2023-03-13T09:39:52.518Z,125
2023-03-13T09:41:12.517Z,120
2023-03-13T09:41:53.066Z,120
2023-03-13T09:42:53.287Z,105
2023-03-13T09:43:53.294Z,125
2023-03-13T09:44:52.750Z,125
2023-03-13T09:45:53.367Z,140
2023-03-13T09:46:53.769Z,145
2023-03-13T09:47:52.726Z,145
2023-03-13T09:48:52.961Z,170
2023-03-13T09:49:53.466Z,190
2023-03-13T09:50:52.659Z,205
2023-03-13T09:51:52.657Z,160
2023-03-13T09:52:53.149Z,195
2023-03-13T09:53:52.620Z,205
2023-03-13T09:54:52.879Z,150
2023-03-13T09:55:52.882Z,185
2023-03-13T09:56:53.122Z,180
2023-03-13T09:57:53.136Z,180
2023-03-13T09:58:52.649Z,160
2023-03-13T09:59:52.871Z,180
2023-03-13T10:00:52.870Z,185
2023-03-13T10:01:53.452Z,160
2023-03-13T10:02:53.026Z,165
2023-03-13T10:03:52.744Z,150
2023-03-13T10:04:53.364Z,145
2023-03-13T10:05:53.122Z,185
2023-03-13T10:06:52.465Z,195
2023-03-13T10:07:53.025Z,180
2023-03-13T10:08:52.789Z,225
2023-03-13T10:09:52.997Z,210
2023-03-13T10:10:52.956Z,215
2023-03-13T10:11:52.667Z,185
2023-03-13T10:12:52.936Z,180
2023-03-13T10:13:52.555Z,180
2023-03-13T10:14:52.345Z,215
2023-03-13T10:15:52.719Z,205
2023-03-13T10:16:53.020Z,185
2023-03-13T10:17:52.737Z,140
2023-03-13T10:18:52.482Z,145
2023-03-13T10:19:52.567Z,160
2023-03-13T10:20:52.585Z,130
2023-03-13T10:21:52.957Z,130
2023-03-13T10:22:52.785Z,155
2023-03-13T10:23:52.496Z,145
2023-03-13T10:24:52.354Z,155
2023-03-13T10:25:52.488Z,145
2023-03-13T10:26:52.451Z,125
2023-03-13T10:27:55.587Z,140
2023-03-13T10:28:52.435Z,130
2023-03-13T10:29:52.409Z,120
2023-03-13T10:30:52.939Z,125
2023-03-13T10:31:52.964Z,125
2023-03-13T10:32:52.711Z,130
2023-03-13T10:33:52.692Z,115
2023-03-13T10:34:52.623Z,105
2023-03-13T10:35:52.845Z,115
2023-03-13T10:36:52.363Z,120
2023-03-13T10:37:53.034Z,120
2023-03-13T10:38:52.410Z,125
2023-03-13T10:39:52.298Z,120
2023-03-13T10:40:52.582Z,115
2023-03-13T10:41:52.529Z,100
2023-03-13T10:42:52.035Z,100
2023-03-13T10:43:52.253Z,125
2023-03-13T10:44:51.975Z,125
2023-03-13T10:45:52.492Z,120
2023-03-13T10:46:53.006Z,100
2023-03-13T10:47:52.465Z,120
2023-03-13T10:48:52.313Z,120
2023-03-13T10:49:51.921Z,115
2023-03-13T10:50:52.402Z,100
2023-03-13T10:51:51.891Z,100
2023-03-13T10:52:51.930Z,130
2023-03-13T10:53:52.627Z,135
2023-03-13T10:54:52.121Z,150
2023-03-13T10:55:52.427Z,140
2023-03-13T10:56:52.395Z,130
2023-03-13T10:57:52.377Z,115
2023-03-13T10:58:52.098Z,110
2023-03-13T10:59:52.082Z,100
2023-03-13T11:00:52.048Z,115
2023-03-13T11:01:52.081Z,105
2023-03-13T11:02:52.630Z,100
2023-03-13T11:03:52.715Z,115
2023-03-13T11:04:52.016Z,130
2023-03-13T11:05:52.012Z,95
2023-03-13T11:06:52.262Z,135
2023-03-13T11:07:52.216Z,95
2023-03-13T11:08:52.270Z,120
2023-03-13T11:09:52.510Z,105
2023-03-13T11:10:51.651Z,120
2023-03-13T11:11:51.673Z,110
2023-03-13T11:12:51.965Z,120
2023-03-13T11:13:51.905Z,105
2023-03-13T11:14:52.206Z,110
2023-03-13T11:15:52.039Z,115
2023-03-13T11:16:53.256Z,100
2023-03-13T11:17:51.592Z,115
2023-03-13T11:18:51.881Z,95
2023-03-13T11:19:53.422Z,125
2023-03-13T11:20:51.843Z,95
2023-03-13T11:21:51.480Z,105
2023-03-13T11:22:51.969Z,85
2023-03-13T11:23:51.762Z,85
2023-03-13T11:24:52.009Z,75
2023-03-13T11:25:52.286Z,85
2023-03-13T11:27:11.603Z,85
2023-03-13T11:27:51.496Z,80
2023-03-13T11:28:51.716Z,110
2023-03-13T11:29:52.041Z,85
2023-03-13T11:30:51.721Z,95
2023-03-13T11:31:51.819Z,90
2023-03-13T11:32:51.783Z,90
2023-03-13T11:33:51.419Z,125
2023-03-13T11:34:51.423Z,125
2023-03-13T11:35:51.728Z,85
2023-03-13T11:36:51.345Z,105
2023-03-13T11:37:51.846Z,100
2023-03-13T11:38:51.616Z,140
2023-03-13T11:39:51.605Z,165
2023-03-13T11:40:51.297Z,155
2023-03-13T11:41:52.430Z,185
2023-03-13T11:42:51.270Z,180
2023-03-13T11:43:51.982Z,205
2023-03-13T11:44:51.487Z,200
2023-03-13T11:45:52.536Z,200
2023-03-13T11:46:52.186Z,210
2023-03-13T11:47:51.471Z,235
2023-03-13T11:48:51.739Z,245
2023-03-13T11:49:51.446Z,265
2023-03-13T11:50:51.454Z,255
2023-03-13T11:51:51.763Z,230
2023-03-13T11:52:51.965Z,210
2023-03-13T11:53:51.145Z,190
2023-03-13T11:54:51.398Z,200
2023-03-13T11:55:51.388Z,200
2023-03-13T11:56:51.085Z,205
2023-03-13T11:57:51.823Z,235
2023-03-13T11:58:51.351Z,185
2023-03-13T11:59:51.618Z,185
2023-03-13T12:00:51.620Z,170
2023-03-13T12:01:53.535Z,180
2023-03-13T12:02:51.235Z,195
2023-03-13T12:03:51.922Z,210
2023-03-13T12:04:51.954Z,235
2023-03-13T12:05:51.559Z,250
2023-03-13T12:06:51.251Z,260
2023-03-13T12:07:50.716Z,260
2023-03-13T12:08:51.604Z,285
2023-03-13T12:09:51.205Z,280
2023-03-13T12:10:51.235Z,260
2023-03-13T12:11:51.578Z,275
2023-03-13T12:12:51.699Z,330
2023-03-13T12:13:51.556Z,350
2023-03-13T12:14:51.150Z,285
2023-03-13T12:15:51.401Z,290
2023-03-13T12:16:51.766Z,285
2023-03-13T12:17:51.455Z,255
2023-03-13T12:18:51.235Z,250
2023-03-13T12:19:50.605Z,245
2023-03-13T12:20:51.085Z,230
2023-03-13T12:21:51.434Z,280
2023-03-13T12:22:51.121Z,375
2023-03-13T12:23:51.752Z,345
2023-03-13T12:24:50.882Z,380
2023-03-13T12:25:51.507Z,345
2023-03-13T12:26:50.785Z,350
2023-03-13T12:27:51.494Z,265
2023-03-13T12:28:50.773Z,255
2023-03-13T12:29:51.539Z,190
2023-03-13T12:30:51.743Z,170
2023-03-13T12:31:50.732Z,210
2023-03-13T12:32:51.134Z,165
2023-03-13T12:33:50.454Z,220
2023-03-13T12:34:51.004Z,245
2023-03-13T12:35:51.073Z,300
2023-03-13T12:36:51.250Z,305
2023-03-13T12:37:50.686Z,315
2023-03-13T12:38:50.877Z,295
2023-03-13T12:39:51.192Z,250
2023-03-13T12:40:50.928Z,275
2023-03-13T12:41:51.158Z,295
2023-03-13T12:42:50.671Z,300
2023-03-13T12:44:12.118Z,305
2023-03-13T12:44:50.398Z,290
2023-03-13T12:45:52.202Z,265
2023-03-13T12:46:50.987Z,270
2023-03-13T12:47:50.591Z,270
2023-03-13T12:48:51.180Z,265
2023-03-13T12:49:50.847Z,280
2023-03-13T12:50:50.815Z,310
2023-03-13T12:51:51.042Z,290
2023-03-13T12:52:50.799Z,255
2023-03-13T12:53:51.306Z,290
2023-03-13T12:54:51.478Z,255
2023-03-13T12:55:50.955Z,220
2023-03-13T12:56:51.768Z,230
2023-03-13T12:57:51.888Z,170
2023-03-13T12:58:51.780Z,140
2023-03-13T12:59:51.529Z,135
2023-03-13T13:00:51.196Z,135
2023-03-13T13:01:52.315Z,130
2023-03-13T13:02:50.885Z,165
2023-03-13T13:03:51.489Z,190
2023-03-13T13:04:51.884Z,220
2023-03-13T13:05:53.903Z,235
2023-03-13T13:06:51.634Z,245
2023-03-13T13:07:51.598Z,245
2023-03-13T13:08:51.430Z,245
2023-03-13T13:09:51.338Z,240
2023-03-13T13:10:51.350Z,255
2023-03-13T13:11:51.306Z,245
2023-03-13T13:12:51.051Z,260
2023-03-13T13:13:51.271Z,250
2023-03-13T13:14:51.584Z,240
2023-03-13T13:15:51.270Z,240
2023-03-13T13:16:51.681Z,225
2023-03-13T13:17:51.884Z,220
2023-03-13T13:18:51.700Z,240
2023-03-13T13:19:51.410Z,220
2023-03-13T13:20:52.025Z,230
2023-03-13T13:21:50.827Z,245
2023-03-13T13:22:54.849Z,225
2023-03-13T13:23:51.180Z,230
2023-03-13T13:24:51.342Z,190
2023-03-13T13:25:51.063Z,200
2023-03-13T13:26:51.321Z,170
2023-03-13T13:27:51.542Z,190
2023-03-13T13:28:51.342Z,155
2023-03-13T13:29:51.733Z,150
2023-03-13T13:30:52.895Z,165
2023-03-13T13:31:52.442Z,175
2023-03-13T13:32:51.910Z,170
2023-03-13T13:33:51.728Z,155
2023-03-13T13:34:51.231Z,140
2023-03-13T13:35:51.228Z,120
2023-03-13T13:36:51.474Z,115
2023-03-13T13:37:53.806Z,145
2023-03-13T13:38:51.066Z,140
2023-03-13T13:39:51.357Z,165
2023-03-13T13:40:51.424Z,155
2023-03-13T13:41:51.293Z,150
2023-03-13T13:42:51.467Z,155
2023-03-13T13:43:51.421Z,140
2023-03-13T13:44:51.149Z,125
2023-03-13T13:45:51.122Z,115
2023-03-13T13:46:51.461Z,90
2023-03-13T13:47:51.368Z,115
2023-03-13T13:48:51.186Z,120
2023-03-13T13:49:51.464Z,125
2023-03-13T13:50:51.068Z,120
2023-03-13T13:51:50.828Z,130
2023-03-13T13:52:51.321Z,140
2023-03-13T13:53:51.318Z,135
2023-03-13T13:54:51.032Z,125
2023-03-13T13:55:51.079Z,105
2023-03-13T13:56:50.992Z,120
2023-03-13T13:57:50.767Z,135
2023-03-13T13:58:51.341Z,180
2023-03-13T13:59:51.252Z,205
2023-03-13T14:00:51.000Z,220
2023-03-13T14:01:51.436Z,180
2023-03-13T14:02:50.701Z,150
2023-03-13T14:03:50.448Z,190
2023-03-13T14:04:51.559Z,225
2023-03-13T14:05:51.326Z,280
2023-03-13T14:06:50.405Z,260
2023-03-13T14:07:51.209Z,210
2023-03-13T14:08:51.099Z,205
2023-03-13T14:09:51.189Z,200
2023-03-13T14:10:51.134Z,205
2023-03-13T14:11:50.639Z,215
2023-03-13T14:12:50.875Z,220
2023-03-13T14:13:50.850Z,240
2023-03-13T14:14:51.117Z,240
2023-03-13T14:15:51.605Z,225
2023-03-13T14:16:50.913Z,235
2023-03-13T14:17:50.580Z,240
2023-03-13T14:18:50.296Z,220
2023-03-13T14:19:50.545Z,195
2023-03-13T14:20:50.950Z,195
2023-03-13T14:21:51.393Z,195
2023-03-13T14:22:50.772Z,200
2023-03-13T14:23:50.597Z,200
2023-03-13T14:24:50.753Z,190
2023-03-13T14:25:51.090Z,200
2023-03-13T14:26:51.008Z,215
2023-03-13T14:27:50.553Z,205
2023-03-13T14:28:50.259Z,205
2023-03-13T14:29:50.526Z,200